createdAt,value
2022-09-28T00:00:32.614Z,9.50
2022-09-28T00:01:32.640Z,9.50
2022-09-28T00:02:32.660Z,9.50
2022-09-28T00:03:32.586Z,9.52
2022-09-28T00:04:32.565Z,9.55
2022-09-28T00:05:32.564Z,9.55
2022-09-28T00:06:32.546Z,9.54
2022-09-28T00:07:32.555Z,9.55
2022-09-28T00:08:32.527Z,9.55
2022-09-28T00:09:32.516Z,9.60
2022-09-28T00:10:32.506Z,9.59
2022-09-28T00:11:32.514Z,9.60
2022-09-28T00:12:32.495Z,9.62
2022-09-28T00:13:32.474Z,9.63
2022-09-28T00:14:32.459Z,9.65
2022-09-28T00:15:32.456Z,9.62
2022-09-28T00:16:32.611Z,9.63
2022-09-28T00:17:32.439Z,9.65
2022-09-28T00:18:32.419Z,9.65
2022-09-28T00:19:32.409Z,9.65
2022-09-28T00:20:32.400Z,9.65
2022-09-28T00:21:32.391Z,9.66
2022-09-28T00:22:32.391Z,9.65
2022-09-28T00:23:32.373Z,9.63
2022-09-28T00:24:32.353Z,9.60
2022-09-28T00:25:32.352Z,9.60
2022-09-28T00:26:32.341Z,9.60
2022-09-28T00:27:32.342Z,9.57
2022-09-28T00:28:32.315Z,9.59
2022-09-28T00:29:32.307Z,9.59
2022-09-28T00:30:32.292Z,9.55
2022-09-28T00:31:32.303Z,9.57
2022-09-28T00:32:32.283Z,9.55
2022-09-28T00:33:32.273Z,9.54
2022-09-28T00:34:32.244Z,9.54
2022-09-28T00:35:32.244Z,9.52
2022-09-28T00:36:32.233Z,9.52
2022-09-28T00:37:32.235Z,9.52
2022-09-28T00:38:32.215Z,9.54
2022-09-28T00:39:32.205Z,9.52
2022-09-28T00:40:32.224Z,9.54
2022-09-28T00:41:32.184Z,9.52
2022-09-28T00:42:32.176Z,9.52
2022-09-28T00:43:32.157Z,9.54
2022-09-28T00:44:32.148Z,9.52
2022-09-28T00:45:32.177Z,9.54
2022-09-28T00:46:32.125Z,9.55
2022-09-28T00:47:32.129Z,9.54
2022-09-28T00:48:32.107Z,9.52
2022-09-28T00:49:32.097Z,9.52
2022-09-28T00:50:32.079Z,9.51
2022-09-28T00:51:32.082Z,9.51
2022-09-28T00:52:32.079Z,9.51
2022-09-28T00:53:32.056Z,9.52
2022-09-28T00:54:32.040Z,9.52
2022-09-28T00:55:32.034Z,9.52
2022-09-28T00:56:32.024Z,9.52
2022-09-28T00:57:32.030Z,9.52
2022-09-28T00:58:32.001Z,9.54
2022-09-28T00:59:31.992Z,9.54
2022-09-28T01:00:32.088Z,9.54
2022-09-28T01:01:31.966Z,9.55
2022-09-28T01:02:32.056Z,9.55
2022-09-28T01:03:31.944Z,9.57
2022-09-28T01:04:31.933Z,9.55
2022-09-28T01:05:31.922Z,9.52
2022-09-28T01:06:31.926Z,9.52
2022-09-28T01:07:31.927Z,9.54
2022-09-28T01:08:31.897Z,9.52
2022-09-28T01:09:31.875Z,9.52
2022-09-28T01:10:31.875Z,9.52
2022-09-28T01:11:31.876Z,9.51
2022-09-28T01:12:31.856Z,9.52
2022-09-28T01:13:31.837Z,9.54
2022-09-28T01:14:31.836Z,9.52
2022-09-28T01:15:31.826Z,9.52
2022-09-28T01:16:31.885Z,9.51
2022-09-28T01:17:31.795Z,9.51
2022-09-28T01:18:31.786Z,9.50
2022-09-28T01:19:31.777Z,9.48
2022-09-28T01:20:31.766Z,9.47
2022-09-28T01:21:31.758Z,9.47
2022-09-28T01:22:31.758Z,9.47
2022-09-28T01:23:31.728Z,9.45
2022-09-28T01:24:31.745Z,9.48
2022-09-28T01:25:31.709Z,9.48
2022-09-28T01:26:31.700Z,9.47
2022-09-28T01:27:31.712Z,9.47
2022-09-28T01:28:31.688Z,9.47
2022-09-28T01:29:31.670Z,9.45
2022-09-28T01:30:31.661Z,9.44
2022-09-28T01:31:31.705Z,9.44
2022-09-28T01:32:31.662Z,9.44
2022-09-28T01:33:31.642Z,9.42
2022-09-28T01:34:31.622Z,9.42
2022-09-28T01:35:31.602Z,9.42
2022-09-28T01:36:31.614Z,9.41
2022-09-28T01:37:31.591Z,9.41
2022-09-28T01:38:31.582Z,9.37
2022-09-28T01:39:31.563Z,9.37
2022-09-28T01:40:31.604Z,9.37
2022-09-28T01:41:31.554Z,9.33
2022-09-28T01:42:31.537Z,9.32
2022-09-28T01:43:31.525Z,9.33
2022-09-28T01:44:31.518Z,9.32
2022-09-28T01:45:31.567Z,9.32
2022-09-28T01:46:31.508Z,9.30
2022-09-28T01:47:31.476Z,9.29
2022-09-28T01:48:31.476Z,9.32
2022-09-28T01:49:31.466Z,9.32
2022-09-28T01:50:31.458Z,9.32
2022-09-28T01:51:31.461Z,9.33
2022-09-28T01:52:31.437Z,9.32
2022-09-28T01:53:31.418Z,9.30
2022-09-28T01:54:31.411Z,9.33
2022-09-28T01:55:31.399Z,9.30
2022-09-28T01:56:31.409Z,9.33
2022-09-28T01:57:31.378Z,9.30
2022-09-28T01:58:31.368Z,9.32
2022-09-28T01:59:31.351Z,9.32
2022-09-28T02:00:31.386Z,9.33
2022-09-28T02:01:31.332Z,9.36
2022-09-28T02:02:31.425Z,9.33
2022-09-28T02:03:31.310Z,9.34
2022-09-28T02:04:31.300Z,9.34
2022-09-28T02:05:31.291Z,9.34
2022-09-28T02:06:31.280Z,9.34
2022-09-28T02:07:31.280Z,9.36
2022-09-28T02:08:31.278Z,9.36
2022-09-28T02:09:33.795Z,9.36
2022-09-28T02:10:31.242Z,9.36
2022-09-28T02:11:31.228Z,9.34
2022-09-28T02:12:31.236Z,9.34
2022-09-28T02:13:31.211Z,9.36
2022-09-28T02:14:31.194Z,9.32
2022-09-28T02:15:31.184Z,9.30
2022-09-28T02:16:31.285Z,9.32
2022-09-28T02:17:31.176Z,9.32
2022-09-28T02:18:31.154Z,9.32
2022-09-28T02:19:31.153Z,9.33
2022-09-28T02:20:31.143Z,9.33
2022-09-28T02:21:31.119Z,9.33
2022-09-28T02:22:31.126Z,9.33
2022-09-28T02:23:31.109Z,9.33
2022-09-28T02:24:31.096Z,9.33
2022-09-28T02:25:31.077Z,9.33
2022-09-28T02:26:31.067Z,9.30
2022-09-28T02:27:31.066Z,9.29
2022-09-28T02:28:31.057Z,9.29
2022-09-28T02:29:31.037Z,9.26
2022-09-28T02:30:31.029Z,9.26
2022-09-28T02:31:31.042Z,9.24
2022-09-28T02:32:31.036Z,9.23
2022-09-28T02:33:30.999Z,9.19
2022-09-28T02:34:30.990Z,9.16
2022-09-28T02:35:30.969Z,9.15
2022-09-28T02:36:30.967Z,9.15
2022-09-28T02:37:30.970Z,9.14
2022-09-28T02:38:30.943Z,9.15
2022-09-28T02:39:30.931Z,9.15
2022-09-28T02:40:30.979Z,9.15
2022-09-28T02:41:30.911Z,9.12
2022-09-28T02:42:30.919Z,9.11
2022-09-28T02:43:30.901Z,9.12
2022-09-28T02:44:30.881Z,9.11
2022-09-28T02:45:30.902Z,9.11
2022-09-28T02:46:30.864Z,9.11
2022-09-28T02:47:30.863Z,9.11
2022-09-28T02:48:43.022Z,9.11
2022-09-28T02:49:31.969Z,9.14
2022-09-28T02:50:30.814Z,9.15
2022-09-28T02:51:30.804Z,9.14
2022-09-28T02:52:30.815Z,9.11
2022-09-28T02:53:30.794Z,9.12
2022-09-28T02:54:30.776Z,9.14
2022-09-28T02:55:30.766Z,9.14
2022-09-28T02:56:30.772Z,9.14
2022-09-28T02:57:30.755Z,9.15
2022-09-28T02:58:30.736Z,9.16
2022-09-28T02:59:30.727Z,9.15
2022-09-28T03:00:30.707Z,9.16
2022-09-28T03:01:30.698Z,9.18
2022-09-28T03:02:30.755Z,9.16
2022-09-28T03:03:30.678Z,9.18
2022-09-28T03:04:30.668Z,9.18
2022-09-28T03:05:30.659Z,9.18
2022-09-28T03:06:30.647Z,9.19
2022-09-28T03:07:30.650Z,9.19
2022-09-28T03:08:30.629Z,9.22
2022-09-28T03:09:30.611Z,9.19
2022-09-28T03:10:30.610Z,9.18
2022-09-28T03:11:30.591Z,9.22
2022-09-28T03:12:30.609Z,9.22
2022-09-28T03:13:30.586Z,9.23
2022-09-28T03:14:30.581Z,9.23
2022-09-28T03:15:30.552Z,9.22
2022-09-28T03:16:30.616Z,9.19
2022-09-28T03:17:30.543Z,9.19
2022-09-28T03:18:30.540Z,9.18
2022-09-28T03:19:30.512Z,9.14
2022-09-28T03:20:30.513Z,9.12
2022-09-28T03:21:30.482Z,9.11
2022-09-28T03:22:30.492Z,9.11
2022-09-28T03:23:30.473Z,9.09
2022-09-28T03:24:30.463Z,9.08
2022-09-28T03:25:30.444Z,9.08
2022-09-28T03:26:30.434Z,9.06
2022-09-28T03:27:30.444Z,9.06
2022-09-28T03:28:30.415Z,9.08
2022-09-28T03:29:30.407Z,9.06
2022-09-28T03:30:30.396Z,9.06
2022-09-28T03:31:30.455Z,9.06
2022-09-28T03:32:30.396Z,9.06
2022-09-28T03:33:30.368Z,9.09
2022-09-28T03:34:30.357Z,9.09
2022-09-28T03:35:30.346Z,9.12
2022-09-28T03:36:30.336Z,9.14
2022-09-28T03:37:30.338Z,9.12
2022-09-28T03:38:30.317Z,9.15
2022-09-28T03:39:30.299Z,9.15
2022-09-28T03:40:30.326Z,9.15
2022-09-28T03:41:30.279Z,9.16
2022-09-28T03:42:30.288Z,9.15
2022-09-28T03:43:30.259Z,9.16
2022-09-28T03:44:30.249Z,9.16
2022-09-28T03:45:30.291Z,9.16
2022-09-28T03:46:30.268Z,9.15
2022-09-28T03:47:30.230Z,9.16
2022-09-28T03:48:32.682Z,9.16
2022-09-28T03:49:30.191Z,9.18
2022-09-28T03:50:30.184Z,9.19
2022-09-28T03:51:30.172Z,9.19
2022-09-28T03:52:30.192Z,9.22
2022-09-28T03:53:30.161Z,9.22
2022-09-28T03:54:30.163Z,9.24
2022-09-28T03:55:30.133Z,9.24
2022-09-28T03:56:30.141Z,9.26
2022-09-28T03:57:30.124Z,9.29
2022-09-28T03:58:30.102Z,9.29
2022-09-28T03:59:30.084Z,9.30
2022-09-28T04:00:30.094Z,9.30
2022-09-28T04:01:30.112Z,9.32
2022-09-28T04:02:30.149Z,9.33
2022-09-28T04:03:30.044Z,9.34
2022-09-28T04:04:30.036Z,9.36
2022-09-28T04:05:30.025Z,9.34
2022-09-28T04:06:30.017Z,9.34
2022-09-28T04:07:31.173Z,9.33
2022-09-28T04:08:30.006Z,9.33
2022-09-28T04:09:29.987Z,9.34
2022-09-28T04:10:29.977Z,9.34
2022-09-28T04:11:42.833Z,9.33
2022-09-28T04:12:30.968Z,9.34
2022-09-28T04:13:29.938Z,9.34
2022-09-28T04:14:29.938Z,9.34
2022-09-28T04:15:29.918Z,9.33
2022-09-28T04:16:29.961Z,9.32
2022-09-28T04:17:29.928Z,9.30
2022-09-28T04:18:29.909Z,9.32
2022-09-28T04:19:29.880Z,9.30
2022-09-28T04:20:29.870Z,9.30
2022-09-28T04:21:29.860Z,9.32
2022-09-28T04:22:29.861Z,9.30
2022-09-28T04:23:29.833Z,9.32
2022-09-28T04:24:29.830Z,9.32
2022-09-28T04:25:29.811Z,9.34
2022-09-28T04:26:29.812Z,9.34
2022-09-28T04:27:29.811Z,9.37
2022-09-28T04:28:29.781Z,9.40
2022-09-28T04:29:29.772Z,9.40
2022-09-28T04:30:29.762Z,9.42
2022-09-28T04:31:29.817Z,9.44
2022-09-28T04:32:29.752Z,9.42
2022-09-28T04:33:29.723Z,9.44
2022-09-28T04:34:34.495Z,9.45
2022-09-28T04:35:30.706Z,9.44
2022-09-28T04:36:29.704Z,9.44
2022-09-28T04:37:29.703Z,9.44
2022-09-28T04:38:48.806Z,9.44
2022-09-28T04:39:30.664Z,9.44
2022-09-28T04:40:29.723Z,9.42
2022-09-28T04:41:29.665Z,9.41
2022-09-28T04:42:29.656Z,9.40
2022-09-28T04:43:29.669Z,9.36
2022-09-28T04:44:29.616Z,9.34
2022-09-28T04:45:29.652Z,9.33
2022-09-28T04:46:29.599Z,9.36
2022-09-28T04:47:29.600Z,9.34
2022-09-28T04:48:29.578Z,9.36
2022-09-28T04:49:29.559Z,9.34
2022-09-28T04:50:29.559Z,9.37
2022-09-28T04:51:29.540Z,9.37
2022-09-28T04:52:29.549Z,9.37
2022-09-28T04:53:29.520Z,9.37
2022-09-28T04:54:29.541Z,9.37
2022-09-28T04:55:29.500Z,9.37
2022-09-28T04:56:29.495Z,9.37
2022-09-28T04:57:29.491Z,9.40
2022-09-28T04:58:29.471Z,9.37
2022-09-28T04:59:29.469Z,9.36
2022-09-28T05:00:29.453Z,9.37
2022-09-28T05:01:29.475Z,9.37
2022-09-28T05:02:29.512Z,9.40
2022-09-28T05:03:29.432Z,9.40
2022-09-28T05:04:29.411Z,9.42
2022-09-28T05:05:29.392Z,9.42
2022-09-28T05:06:29.344Z,9.42
2022-09-28T05:07:29.314Z,9.42
2022-09-28T05:08:29.374Z,9.42
2022-09-28T05:09:29.353Z,9.44
2022-09-28T05:10:29.345Z,9.44
2022-09-28T05:11:29.327Z,9.45
2022-09-28T05:12:29.322Z,9.44
2022-09-28T05:13:29.296Z,9.47
2022-09-28T05:14:29.246Z,9.48
2022-09-28T05:15:29.253Z,9.48
2022-09-28T05:16:29.263Z,9.50
2022-09-28T05:17:29.218Z,9.48
2022-09-28T05:18:29.268Z,9.48
2022-09-28T05:19:29.208Z,9.48
2022-09-28T05:20:29.180Z,9.50
2022-09-28T05:21:29.177Z,9.51
2022-09-28T05:22:29.168Z,9.50
2022-09-28T05:23:29.169Z,9.50
2022-09-28T05:24:29.139Z,9.48
2022-09-28T05:25:29.128Z,9.47
2022-09-28T05:26:29.119Z,9.44
2022-09-28T05:27:29.109Z,9.42
2022-09-28T05:28:29.113Z,9.40
2022-09-28T05:29:32.241Z,9.40
2022-09-28T05:30:29.070Z,9.37
2022-09-28T05:31:29.139Z,9.36
2022-09-28T05:32:29.050Z,9.37
2022-09-28T05:33:29.060Z,9.36
2022-09-28T05:34:29.041Z,9.40
2022-09-28T05:35:29.031Z,9.36
2022-09-28T05:36:29.013Z,9.37
2022-09-28T05:37:29.005Z,9.37
2022-09-28T05:38:29.017Z,9.41
2022-09-28T05:39:28.990Z,9.40
2022-09-28T05:40:29.044Z,9.41
2022-09-28T05:41:28.962Z,9.42
2022-09-28T05:42:28.943Z,9.44
2022-09-28T05:43:28.964Z,9.44
2022-09-28T05:44:28.925Z,9.44
2022-09-28T05:45:28.974Z,9.42
2022-09-28T05:46:29.023Z,9.44
2022-09-28T05:47:28.897Z,9.45
2022-09-28T05:48:28.905Z,9.45
2022-09-28T05:49:28.877Z,9.47
2022-09-28T05:50:28.872Z,9.47
2022-09-28T05:51:28.873Z,9.47
2022-09-28T05:52:28.833Z,9.48
2022-09-28T05:53:28.848Z,9.50
2022-09-28T05:54:28.830Z,9.47
2022-09-28T05:55:28.875Z,9.48
2022-09-28T05:56:28.798Z,9.48
2022-09-28T05:57:28.791Z,9.50
2022-09-28T05:58:28.798Z,9.48
2022-09-28T05:59:28.778Z,9.48
2022-09-28T06:00:28.787Z,9.48
2022-09-28T06:01:28.788Z,9.45
2022-09-28T06:02:28.802Z,9.44
2022-09-28T06:03:28.762Z,9.45
2022-09-28T06:04:28.710Z,9.42
2022-09-28T06:05:28.710Z,9.44
2022-09-28T06:06:28.691Z,9.45
2022-09-28T06:07:28.691Z,9.47
2022-09-28T06:08:28.707Z,9.45
2022-09-28T06:09:28.671Z,9.45
2022-09-28T06:10:28.756Z,9.47
2022-09-28T06:11:28.653Z,9.47
2022-09-28T06:12:28.632Z,9.47
2022-09-28T06:13:28.633Z,9.44
2022-09-28T06:14:28.614Z,9.45
2022-09-28T06:15:28.603Z,9.44
2022-09-28T06:16:28.667Z,9.44
2022-09-28T06:17:28.586Z,9.45
2022-09-28T06:18:28.586Z,9.45
2022-09-28T06:19:28.565Z,9.44
2022-09-28T06:20:28.574Z,9.44
2022-09-28T06:21:28.535Z,9.45
2022-09-28T06:22:28.526Z,9.45
2022-09-28T06:23:28.536Z,9.47
2022-09-28T06:24:28.506Z,9.48
2022-09-28T06:25:28.496Z,9.48
2022-09-28T06:26:28.487Z,9.50
2022-09-28T06:27:28.477Z,9.50
2022-09-28T06:28:28.477Z,9.52
2022-09-28T06:29:28.457Z,9.54
2022-09-28T06:30:28.515Z,9.54
2022-09-28T06:31:28.437Z,9.55
2022-09-28T06:32:28.420Z,9.57
2022-09-28T06:33:28.429Z,9.57
2022-09-28T06:34:28.401Z,9.59
2022-09-28T06:35:28.393Z,9.60
2022-09-28T06:36:28.381Z,9.60
2022-09-28T06:37:28.370Z,9.60
2022-09-28T06:38:28.370Z,9.62
2022-09-28T06:39:28.353Z,9.62
2022-09-28T06:40:28.395Z,9.63
2022-09-28T06:41:28.392Z,9.65
2022-09-28T06:42:28.362Z,9.66
2022-09-28T06:43:33.555Z,9.67
2022-09-28T06:44:29.293Z,9.66
2022-09-28T06:45:28.284Z,9.69
2022-09-28T06:46:28.295Z,9.67
2022-09-28T06:47:28.272Z,9.67
2022-09-28T06:48:28.263Z,9.69
2022-09-28T06:49:28.244Z,9.73
2022-09-28T06:50:28.225Z,9.73
2022-09-28T06:51:28.224Z,9.77
2022-09-28T06:52:28.204Z,9.75
2022-09-28T06:53:28.214Z,9.80
2022-09-28T06:54:28.195Z,9.81
2022-09-28T06:55:28.198Z,9.81
2022-09-28T06:56:32.569Z,9.85
2022-09-28T06:57:28.164Z,9.85
2022-09-28T06:58:28.177Z,9.85
2022-09-28T06:59:28.136Z,9.85
2022-09-28T07:00:28.134Z,9.88
2022-09-28T07:01:28.142Z,9.91
2022-09-28T07:02:28.151Z,9.90
2022-09-28T07:03:28.128Z,9.91
2022-09-28T07:04:28.089Z,9.93
2022-09-28T07:05:28.078Z,9.93
2022-09-28T07:06:28.059Z,9.94
2022-09-28T07:07:28.049Z,9.94
2022-09-28T07:08:28.049Z,9.98
2022-09-28T07:09:32.960Z,9.98
2022-09-28T07:10:29.020Z,9.98
2022-09-28T07:11:28.010Z,9.99
2022-09-28T07:12:28.000Z,9.99
2022-09-28T07:14:45.905Z,10.02
2022-09-28T07:15:28.991Z,10.03
2022-09-28T07:16:35.498Z,10.03
2022-09-28T07:17:29.162Z,10.03
2022-09-28T07:18:27.968Z,10.02
2022-09-28T07:19:27.933Z,10.02
2022-09-28T07:20:27.913Z,10.02
2022-09-28T07:21:30.572Z,10.01
2022-09-28T07:22:41.245Z,10.01
2022-09-28T07:23:28.904Z,9.99
2022-09-28T07:24:27.872Z,9.98
2022-09-28T07:25:27.864Z,9.99
2022-09-28T07:26:27.845Z,9.99
2022-09-28T07:27:29.022Z,10.01
2022-09-28T07:28:27.845Z,10.01
2022-09-28T07:29:27.816Z,9.98
2022-09-28T07:30:28.169Z,9.98
2022-09-28T07:31:27.806Z,9.96
2022-09-28T07:32:27.845Z,9.96
2022-09-28T07:33:27.795Z,9.96
2022-09-28T07:34:27.770Z,9.93
2022-09-28T07:35:27.757Z,9.93
2022-09-28T07:36:27.759Z,9.91
2022-09-28T07:37:27.739Z,9.91
2022-09-28T07:38:27.738Z,9.90
2022-09-28T07:39:27.718Z,9.90
2022-09-28T07:40:27.764Z,9.90
2022-09-28T07:41:27.697Z,9.90
2022-09-28T07:42:27.679Z,9.87
2022-09-28T07:43:27.692Z,9.87
2022-09-28T07:44:27.660Z,9.84
2022-09-28T07:45:27.658Z,9.85
2022-09-28T07:46:27.676Z,9.85
2022-09-28T07:47:32.313Z,9.87
2022-09-28T07:48:28.633Z,9.85
2022-09-28T07:49:27.622Z,9.85
2022-09-28T07:50:27.602Z,9.88
2022-09-28T07:51:27.592Z,9.88
2022-09-28T07:52:27.572Z,9.88
2022-09-28T07:53:27.606Z,9.90
2022-09-28T07:54:27.554Z,9.90
2022-09-28T07:55:27.558Z,9.90
2022-09-28T07:56:27.534Z,9.91
2022-09-28T07:57:27.525Z,9.93
2022-09-28T07:58:27.541Z,9.94
2022-09-28T07:59:27.505Z,9.98
2022-09-28T08:00:29.836Z,9.98
2022-09-28T08:01:28.515Z,9.99
2022-09-28T08:02:27.496Z,9.99
2022-09-28T08:03:27.480Z,9.99
2022-09-28T08:04:27.446Z,10.02
2022-09-28T08:05:27.446Z,10.02
2022-09-28T08:06:27.426Z,10.03
2022-09-28T08:07:27.427Z,10.03
2022-09-28T08:08:27.417Z,10.05
2022-09-28T08:09:27.398Z,10.05
2022-09-28T08:10:27.387Z,10.05
2022-09-28T08:11:27.386Z,10.08
2022-09-28T08:12:27.358Z,10.09
2022-09-28T08:13:27.526Z,10.08
2022-09-28T08:14:27.339Z,10.08
2022-09-28T08:15:27.338Z,10.09
2022-09-28T08:16:27.390Z,10.09
2022-09-28T08:17:27.320Z,10.12
2022-09-28T08:18:27.311Z,10.12
2022-09-28T08:19:27.291Z,10.16
2022-09-28T08:20:27.283Z,10.18
2022-09-28T08:21:27.271Z,10.20
2022-09-28T08:22:27.263Z,10.21
2022-09-28T08:23:27.264Z,10.23
2022-09-28T08:24:27.243Z,10.24
2022-09-28T08:25:27.232Z,10.26
2022-09-28T08:26:27.252Z,10.26
2022-09-28T08:27:27.213Z,10.27
2022-09-28T08:28:27.223Z,10.28
2022-09-28T08:29:27.184Z,10.31
2022-09-28T08:30:27.213Z,10.34
2022-09-28T08:31:27.174Z,10.34
2022-09-28T08:32:27.155Z,10.35
2022-09-28T08:33:27.146Z,10.36
2022-09-28T08:34:27.145Z,10.36
2022-09-28T08:35:27.126Z,10.38
2022-09-28T08:36:27.135Z,10.38
2022-09-28T08:37:27.104Z,10.39
2022-09-28T08:38:27.087Z,10.39
2022-09-28T08:39:27.096Z,10.41
2022-09-28T08:40:27.125Z,10.39
2022-09-28T08:41:27.068Z,10.39
2022-09-28T08:42:27.048Z,10.39
2022-09-28T08:43:27.038Z,10.38
2022-09-28T08:44:27.048Z,10.39
2022-09-28T08:45:27.019Z,10.36
2022-09-28T08:46:27.334Z,10.38
2022-09-28T08:47:26.999Z,10.39
2022-09-28T08:48:26.981Z,10.42
2022-09-28T08:49:27.107Z,10.45
2022-09-28T08:50:26.980Z,10.46
2022-09-28T08:51:26.960Z,10.52
2022-09-28T08:52:26.940Z,10.57
2022-09-28T08:53:26.941Z,10.58
2022-09-28T08:54:26.931Z,10.57
2022-09-28T08:55:26.912Z,10.57
2022-09-28T08:56:26.892Z,10.60
2022-09-28T08:57:26.903Z,10.61
2022-09-28T08:58:26.892Z,10.64
2022-09-28T08:59:26.903Z,10.62
2022-09-28T09:00:26.853Z,10.65
2022-09-28T09:01:26.918Z,10.64
2022-09-28T09:02:26.907Z,10.64
2022-09-28T09:03:26.834Z,10.64
2022-09-28T09:04:26.828Z,10.67
2022-09-28T09:05:26.808Z,10.68
2022-09-28T09:06:26.795Z,10.70
2022-09-28T09:07:26.786Z,10.70
2022-09-28T09:08:26.775Z,10.72
2022-09-28T09:09:26.777Z,10.73
2022-09-28T09:10:26.754Z,10.73
2022-09-28T09:11:26.757Z,10.75
2022-09-28T09:12:26.736Z,10.70
2022-09-28T09:13:26.727Z,10.67
2022-09-28T09:14:26.756Z,10.68
2022-09-28T09:15:26.698Z,10.68
2022-09-28T09:16:26.742Z,10.68
2022-09-28T09:17:26.678Z,10.70
2022-09-28T09:18:26.670Z,10.73
2022-09-28T09:19:26.689Z,10.76
2022-09-28T09:20:26.647Z,10.78
2022-09-28T09:21:26.651Z,10.82
2022-09-28T09:22:26.629Z,10.90
2022-09-28T09:23:26.619Z,10.93
2022-09-28T09:24:26.621Z,10.95
2022-09-28T09:25:26.603Z,10.98
2022-09-28T09:26:26.581Z,11.00
2022-09-28T09:27:26.591Z,11.03
2022-09-28T09:28:26.561Z,11.01
2022-09-28T09:29:26.576Z,11.01
2022-09-28T09:30:29.331Z,11.01
2022-09-28T09:31:26.577Z,11.03
2022-09-28T09:32:26.533Z,11.08
2022-09-28T09:33:26.525Z,11.12
2022-09-28T09:34:26.524Z,11.13
2022-09-28T09:35:30.110Z,11.19
2022-09-28T09:36:26.484Z,11.27
2022-09-28T09:37:26.466Z,11.33
2022-09-28T09:38:26.507Z,11.40
2022-09-28T09:39:26.465Z,11.46
2022-09-28T09:40:26.519Z,11.49
2022-09-28T09:41:26.426Z,11.54
2022-09-28T09:42:26.437Z,11.58
2022-09-28T09:43:29.364Z,11.56
2022-09-28T09:44:27.415Z,11.56
2022-09-28T09:45:26.387Z,11.56
2022-09-28T09:46:26.448Z,11.54
2022-09-28T09:47:26.367Z,11.52
2022-09-28T09:48:26.377Z,11.52
2022-09-28T09:49:26.358Z,11.51
2022-09-28T09:50:26.339Z,11.51
2022-09-28T09:51:26.319Z,11.51
2022-09-28T09:52:26.366Z,11.49
2022-09-28T09:53:26.300Z,11.48
2022-09-28T09:54:26.310Z,11.45
2022-09-28T09:55:29.865Z,11.45
2022-09-28T09:56:26.279Z,11.41
2022-09-28T09:57:26.271Z,11.40
2022-09-28T09:58:26.259Z,11.40
2022-09-28T09:59:26.252Z,11.37
2022-09-28T10:00:26.232Z,11.38
2022-09-28T10:01:26.250Z,11.38
2022-09-28T10:02:26.263Z,11.40
2022-09-28T10:03:26.196Z,11.41
2022-09-28T10:04:26.217Z,11.51
2022-09-28T10:05:26.174Z,11.67
2022-09-28T10:06:26.183Z,11.71
2022-09-28T10:07:26.157Z,11.73
2022-09-28T10:08:26.144Z,12.30
2022-09-28T10:09:26.153Z,12.33
2022-09-28T10:10:26.127Z,12.21
2022-09-28T10:11:26.203Z,12.13
2022-09-28T10:12:26.104Z,12.10
2022-09-28T10:13:26.090Z,12.08
2022-09-28T10:14:26.094Z,12.13
2022-09-28T10:15:26.078Z,12.62
2022-09-28T10:16:26.107Z,13.23
2022-09-28T10:17:26.049Z,13.26
2022-09-28T10:18:26.038Z,13.68
2022-09-28T10:19:26.040Z,13.88
2022-09-28T10:20:26.028Z,13.61
2022-09-28T10:21:26.001Z,13.45
2022-09-28T10:22:25.994Z,13.32
2022-09-28T10:23:25.983Z,13.23
2022-09-28T10:24:25.991Z,13.13
2022-09-28T10:25:25.961Z,13.05
2022-09-28T10:26:25.951Z,13.06
2022-09-28T10:27:25.945Z,13.14
2022-09-28T10:28:25.973Z,13.27
2022-09-28T10:29:25.932Z,13.49
2022-09-28T10:30:25.914Z,13.83
2022-09-28T10:31:25.893Z,14.03
2022-09-28T10:32:25.893Z,14.01
2022-09-28T10:33:25.881Z,13.94
2022-09-28T10:34:25.884Z,13.80
2022-09-28T10:35:25.878Z,13.68
2022-09-28T10:36:25.846Z,13.58
2022-09-28T10:37:25.834Z,13.49
2022-09-28T10:38:25.844Z,13.42
2022-09-28T10:39:25.825Z,13.32
2022-09-28T10:40:25.861Z,13.24
2022-09-28T10:41:25.795Z,13.14
2022-09-28T10:42:25.789Z,13.04
2022-09-28T10:43:25.808Z,12.93
2022-09-28T10:44:25.777Z,12.86
2022-09-28T10:45:25.751Z,12.79
2022-09-28T10:46:25.818Z,12.71
2022-09-28T10:47:25.728Z,12.65
2022-09-28T10:48:25.718Z,12.62
2022-09-28T10:49:25.730Z,12.55
2022-09-28T10:50:25.722Z,12.50
2022-09-28T10:51:25.690Z,12.47
2022-09-28T10:52:25.691Z,12.43
2022-09-28T10:53:25.671Z,12.36
2022-09-28T10:54:25.684Z,12.33
2022-09-28T10:55:25.651Z,12.26
2022-09-28T10:56:25.651Z,12.23
2022-09-28T10:57:25.623Z,12.15
2022-09-28T10:58:25.622Z,12.11
2022-09-28T10:59:25.625Z,12.04
2022-09-28T11:00:25.613Z,12.03
2022-09-28T11:01:25.641Z,12.00
2022-09-28T11:02:25.605Z,11.99
2022-09-28T11:03:25.564Z,11.96
2022-09-28T11:04:25.575Z,11.96
2022-09-28T11:05:25.544Z,11.96
2022-09-28T11:06:25.537Z,11.95
2022-09-28T11:07:25.523Z,11.88
2022-09-28T11:08:25.516Z,11.87
2022-09-28T11:09:29.797Z,11.85
2022-09-28T11:10:26.487Z,11.82
2022-09-28T11:11:25.478Z,11.80
2022-09-28T11:12:25.481Z,11.80
2022-09-28T11:13:25.459Z,11.79
2022-09-28T11:14:25.468Z,11.77
2022-09-28T11:15:25.440Z,11.73
2022-09-28T11:16:25.502Z,11.74
2022-09-28T11:17:25.418Z,11.73
2022-09-28T11:18:25.417Z,11.70
2022-09-28T11:19:25.410Z,11.70
2022-09-28T11:20:27.762Z,11.71
2022-09-28T11:21:25.370Z,11.70
2022-09-28T11:22:25.368Z,11.73
2022-09-28T11:23:25.351Z,11.73
2022-09-28T11:24:25.710Z,11.71
2022-09-28T11:25:25.336Z,11.71
2022-09-28T11:26:25.325Z,11.77
2022-09-28T11:27:25.337Z,12.00
2022-09-28T11:28:25.303Z,12.15
2022-09-28T11:29:25.302Z,12.17
2022-09-28T11:30:25.308Z,12.15
2022-09-28T11:31:25.262Z,12.15
2022-09-28T11:32:25.264Z,12.30
2022-09-28T11:33:25.245Z,12.53
2022-09-28T11:34:36.493Z,13.09
2022-09-28T11:35:26.225Z,13.63
2022-09-28T11:36:25.215Z,14.04
2022-09-28T11:37:25.205Z,14.48
2022-09-28T11:38:25.206Z,15.05
2022-09-28T11:39:25.196Z,15.43
2022-09-28T11:40:25.244Z,15.90
2022-09-28T11:41:25.157Z,16.44
2022-09-28T11:42:25.157Z,16.88
2022-09-28T11:43:25.140Z,17.25
2022-09-28T11:44:28.241Z,17.66
2022-09-28T11:45:26.118Z,17.37
2022-09-28T11:46:25.173Z,16.92
2022-09-28T11:47:25.169Z,16.69
2022-09-28T11:48:25.090Z,16.36
2022-09-28T11:49:25.095Z,16.06
2022-09-28T11:50:25.137Z,16.25
2022-09-28T11:51:25.063Z,16.00
2022-09-28T11:52:25.041Z,16.46
2022-09-28T11:53:25.032Z,16.09
2022-09-28T11:54:25.052Z,16.55
2022-09-28T11:55:25.014Z,17.16
2022-09-28T11:56:25.024Z,17.56
2022-09-28T11:57:24.995Z,18.03
2022-09-28T11:58:24.983Z,17.72
2022-09-28T11:59:24.987Z,17.43
2022-09-28T12:00:24.968Z,17.91
2022-09-28T12:01:24.945Z,18.09
2022-09-28T12:02:25.034Z,18.46
2022-09-28T12:03:25.024Z,18.89
2022-09-28T12:04:24.936Z,19.26
2022-09-28T12:05:24.916Z,19.57
2022-09-28T12:06:24.896Z,19.26
2022-09-28T12:07:24.897Z,19.23
2022-09-28T12:08:24.891Z,19.60
2022-09-28T12:09:24.879Z,18.98
2022-09-28T12:10:24.859Z,18.76
2022-09-28T12:11:24.840Z,18.39
2022-09-28T12:12:24.842Z,18.06
2022-09-28T12:13:24.823Z,18.63
2022-09-28T12:14:24.841Z,18.94
2022-09-28T12:15:24.800Z,18.49
2022-09-28T12:16:53.533Z,18.13
2022-09-28T12:17:25.851Z,17.78
2022-09-28T12:18:24.782Z,17.49
2022-09-28T12:19:24.773Z,17.20
2022-09-28T12:20:24.753Z,16.92
2022-09-28T12:21:24.733Z,16.72
2022-09-28T12:22:24.735Z,16.51
2022-09-28T12:23:24.734Z,16.29
2022-09-28T12:24:24.725Z,16.14
2022-09-28T12:25:24.698Z,15.96
2022-09-28T12:26:24.688Z,15.78
2022-09-28T12:27:24.676Z,15.63
2022-09-28T12:28:24.676Z,15.54
2022-09-28T12:29:24.777Z,15.44
2022-09-28T12:30:24.668Z,15.35
2022-09-28T12:31:24.718Z,16.09
2022-09-28T12:32:24.628Z,16.80
2022-09-28T12:33:24.619Z,17.39
2022-09-28T12:34:24.606Z,17.86
2022-09-28T12:35:24.599Z,17.68
2022-09-28T12:36:24.587Z,17.27
2022-09-28T12:37:24.572Z,16.91
2022-09-28T12:38:24.561Z,16.62
2022-09-28T12:39:40.989Z,16.40
2022-09-28T12:40:25.639Z,16.18
2022-09-28T12:41:24.524Z,16.00
2022-09-28T12:42:24.538Z,15.84
2022-09-28T12:43:24.503Z,15.69
2022-09-28T12:44:24.504Z,15.58
2022-09-28T12:45:24.496Z,15.43
2022-09-28T12:46:24.581Z,15.29
2022-09-28T12:47:24.466Z,15.14
2022-09-28T12:48:24.456Z,15.05
2022-09-28T12:50:20.075Z,14.96
2022-09-28T12:50:44.153Z,14.85
2022-09-28T12:51:25.445Z,14.74
2022-09-28T12:52:24.420Z,14.67
2022-09-28T12:53:24.404Z,14.59
2022-09-28T12:54:24.408Z,14.49
2022-09-28T12:55:24.378Z,14.44
2022-09-28T12:56:24.377Z,14.34
2022-09-28T12:57:24.361Z,14.28
2022-09-28T12:58:24.348Z,14.16
2022-09-28T12:59:24.349Z,13.98
2022-09-28T13:00:24.354Z,13.88
2022-09-28T13:01:24.409Z,13.80
2022-09-28T13:02:24.402Z,13.76
2022-09-28T13:03:24.291Z,13.73
2022-09-28T13:04:24.302Z,13.68
2022-09-28T13:05:24.271Z,13.65
2022-09-28T13:06:24.261Z,13.65
2022-09-28T13:07:24.254Z,13.76
2022-09-28T13:08:24.247Z,13.94